Time;durP1;ratioP1;P1;durP2;ratioP2;P2;SDS_P1;SDS_P2;PMS_P1;PMS_P2;Temp;Humidity;BMP_temperature;BMP_pressure;BME280_temperature;BME280_humidity;BME280_pressure;Samples;Min_cycle;Max_cycle;Signal;HPM_P1;HPM_P2
2022/11/13 00:00:31;;;;;;;20.85;15.68;;;3.50;99.90;;;;;;5057101;28;20388;-69
2022/11/13 00:02:57;;;;;;;19.50;15.43;;;3.50;99.90;;;;;;5057303;28;20024;-70
2022/11/13 00:05:23;;;;;;;19.10;15.38;;;3.50;99.90;;;;;;5056786;28;20033;-69
2022/11/13 00:07:48;;;;;;;19.90;15.60;;;3.50;99.90;;;;;;5056490;28;20500;-69
2022/11/13 00:10:14;;;;;;;22.63;16.33;;;3.50;99.90;;;;;;5056341;28;20480;-69
2022/11/13 00:12:40;;;;;;;19.67;15.65;;;3.50;99.90;;;;;;5056819;28;20093;-69
2022/11/13 00:15:06;;;;;;;19.92;15.05;;;3.50;99.90;;;;;;5056561;28;20496;-70
2022/11/13 00:17:31;;;;;;;21.23;16.42;;;3.50;99.90;;;;;;5056785;28;20052;-69
2022/11/13 00:19:57;;;;;;;19.33;14.73;;;3.50;99.90;;;;;;5055980;28;20059;-69
2022/11/13 00:22:22;;;;;;;19.63;15.15;;;3.40;99.90;;;;;;5056665;28;20060;-69
2022/11/13 00:24:48;;;;;;;22.45;16.45;;;3.40;99.90;;;;;;5056288;28;20086;-69
2022/11/13 00:27:13;;;;;;;23.70;16.48;;;3.30;99.90;;;;;;5056096;28;20116;-70
2022/11/13 00:29:39;;;;;;;22.33;17.08;;;3.30;99.90;;;;;;5056655;28;20087;-69
2022/11/13 00:32:04;;;;;;;22.40;16.45;;;3.30;99.90;;;;;;5055815;28;20505;-69
2022/11/13 00:34:30;;;;;;;23.55;15.88;;;3.30;99.90;;;;;;5056032;28;20056;-70
2022/11/13 00:36:56;;;;;;;23.75;16.85;;;3.20;99.90;;;;;;5056181;28;20033;-70
2022/11/13 00:39:21;;;;;;;23.30;16.70;;;3.20;99.90;;;;;;5056101;28;20500;-69
2022/11/13 00:41:47;;;;;;;23.92;17.15;;;3.20;99.90;;;;;;5056420;28;20021;-70
2022/11/13 00:44:12;;;;;;;23.38;16.08;;;3.20;99.90;;;;;;5055228;28;20055;-69
2022/11/13 00:46:38;;;;;;;24.58;17.00;;;3.20;99.90;;;;;;5056100;28;20029;-70
2022/11/13 00:49:03;;;;;;;26.63;17.70;;;3.20;99.90;;;;;;5055994;28;20029;-70
2022/11/13 00:51:29;;;;;;;26.08;17.60;;;3.20;99.90;;;;;;5056079;28;20025;-70
2022/11/13 00:53:55;;;;;;;24.95;16.95;;;3.10;99.90;;;;;;5055938;28;20525;-70
2022/11/13 00:56:20;;;;;;;28.25;18.13;;;3.10;99.90;;;;;;5056452;28;20021;-70
2022/11/13 00:58:46;;;;;;;27.35;17.92;;;3.10;99.90;;;;;;5055230;28;20473;-70
2022/11/13 01:01:16;;;;;;;26.38;17.73;;;3.00;99.90;;;;;;5056101;28;20112;-70
2022/11/13 01:03:42;;;;;;;24.48;17.98;;;3.00;99.90;;;;;;5055668;28;20104;-70
2022/11/13 01:06:27;;;;;;;24.40;16.90;;;2.90;99.90;;;;;;5056003;28;20029;-69
2022/11/13 01:08:54;;;;;;;22.40;15.93;;;2.90;99.90;;;;;;5055741;28;20037;-70
2022/11/13 01:11:22;;;;;;;18.70;13.95;;;2.90;99.90;;;;;;5055667;28;20392;-70
2022/11/13 01:13:49;;;;;;;20.83;16.13;;;2.80;99.90;;;;;;5055036;28;20036;-70
2022/11/13 01:16:17;;;;;;;19.77;15.57;;;2.90;99.90;;;;;;5055344;28;20055;-70
2022/11/13 01:18:42;;;;;;;21.15;15.68;;;2.90;99.90;;;;;;5055302;28;20488;-70
2022/11/13 01:21:16;;;;;;;20.95;16.05;;;2.90;99.90;;;;;;5055925;28;20032;-70
2022/11/13 01:23:42;;;;;;;33.33;16.35;;;2.90;99.90;;;;;;5055076;28;20116;-69
2022/11/13 01:26:15;;;;;;;28.05;14.85;;;2.80;99.90;;;;;;5055345;28;20052;-70
2022/11/13 01:28:42;;;;;;;24.60;15.23;;;2.80;99.90;;;;;;5055629;28;20447;-70
2022/11/13 01:31:11;;;;;;;34.15;16.75;;;2.90;99.90;;;;;;5067846;28;20115;-70
2022/11/13 01:33:37;;;;;;;21.38;15.80;;;3.00;99.90;;;;;;5075414;28;20057;-70
2022/11/13 01:36:09;;;;;;;30.30;19.50;;;3.00;99.90;;;;;;5074745;28;20029;-70
2022/11/13 01:38:35;;;;;;;32.80;19.25;;;3.10;99.90;;;;;;5075088;28;20383;-70
2022/11/13 01:41:01;;;;;;;37.55;22.55;;;3.30;99.90;;;;;;5073932;28;20035;-69
2022/11/13 01:43:29;;;;;;;39.75;23.38;;;3.40;99.90;;;;;;5054696;28;20053;-69
2022/11/13 01:45:57;;;;;;;36.85;22.48;;;3.60;99.90;;;;;;5057808;28;20021;-69
2022/11/13 01:48:27;;;;;;;40.88;22.50;;;3.70;99.90;;;;;;5075272;28;20461;-70
2022/11/13 01:50:53;;;;;;;40.33;20.98;;;3.70;99.90;;;;;;5074979;28;20051;-70
2022/11/13 01:53:19;;;;;;;33.88;21.17;;;3.80;99.90;;;;;;5074659;28;20026;-70
2022/11/13 01:55:45;;;;;;;35.28;21.00;;;3.80;99.90;;;;;;5068646;28;20031;-70
2022/11/13 01:58:13;;;;;;;31.60;20.92;;;3.80;99.90;;;;;;5054036;28;20060;-69
2022/11/13 02:00:38;;;;;;;34.20;21.27;;;3.80;99.90;;;;;;5054764;28;20021;-70
2022/11/13 02:03:04;;;;;;;35.67;21.80;;;3.90;99.90;;;;;;5054837;28;20027;-70
2022/11/13 02:05:31;;;;;;;41.00;23.75;;;4.00;99.90;;;;;;5054462;28;20056;-70
2022/11/13 02:07:56;;;;;;;37.17;23.42;;;4.00;99.90;;;;;;5053863;28;20033;-69
2022/11/13 02:10:22;;;;;;;46.78;25.92;;;4.00;99.90;;;;;;5054775;28;20074;-70
2022/11/13 02:12:50;;;;;;;47.75;27.17;;;4.10;99.90;;;;;;5054384;28;20377;-70
2022/11/13 02:15:17;;;;;;;49.08;28.40;;;4.10;99.90;;;;;;5054280;28;20021;-69
2022/11/13 02:17:57;;;;;;;43.25;24.90;;;4.20;99.90;;;;;;5054227;28;20070;-70
2022/11/13 02:20:57;;;;;;;58.10;28.08;;;4.20;99.90;;;;;;5054305;28;20037;-69
2022/11/13 02:23:48;;;;;;;55.05;29.15;;;4.30;99.90;;;;;;5053948;28;20062;-70
2022/11/13 02:26:15;;;;;;;52.83;26.50;;;4.30;99.90;;;;;;5053998;28;20025;-70
2022/11/13 02:28:41;;;;;;;52.70;28.58;;;4.40;99.90;;;;;;5073603;28;20028;-69
2022/11/13 02:31:12;;;;;;;58.65;30.65;;;4.40;99.90;;;;;;5074063;28;20021;-70
2022/11/13 02:33:38;;;;;;;49.55;27.42;;;4.50;99.90;;;;;;5074063;28;20120;-70
2022/11/13 02:36:05;;;;;;;52.13;27.92;;;4.60;99.90;;;;;;5073431;28;20096;-69
2022/11/13 02:38:33;;;;;;;50.45;27.55;;;4.60;99.90;;;;;;5074418;28;20025;-69
2022/11/13 02:40:59;;;;;;;53.25;28.58;;;4.60;99.90;;;;;;5056193;28;20024;-70
2022/11/13 02:43:25;;;;;;;50.95;29.08;;;4.60;99.90;;;;;;5073588;28;20025;-69
2022/11/13 02:45:50;;;;;;;47.25;26.27;;;4.70;99.90;;;;;;5073282;28;20024;-70
2022/11/13 02:48:16;;;;;;;45.67;25.58;;;4.70;99.90;;;;;;5056806;28;20020;-70
2022/11/13 02:50:41;;;;;;;45.58;27.25;;;4.70;99.90;;;;;;5053620;28;20032;-69
2022/11/13 02:53:07;;;;;;;55.97;28.85;;;4.70;99.90;;;;;;5053376;28;20021;-70
2022/11/13 02:55:32;;;;;;;66.22;34.72;;;4.70;99.90;;;;;;5053511;28;20032;-70
2022/11/13 02:57:58;;;;;;;57.40;31.27;;;4.80;99.90;;;;;;5053612;28;20044;-69
2022/11/13 03:00:24;;;;;;;56.33;29.55;;;4.80;99.90;;;;;;5053907;28;20017;-70
2022/11/13 03:02:49;;;;;;;59.90;32.10;;;4.90;99.90;;;;;;5053866;28;20475;-70
2022/11/13 03:05:15;;;;;;;55.30;30.20;;;4.90;99.90;;;;;;5052931;28;20105;-69
2022/11/13 03:07:41;;;;;;;49.67;28.92;;;4.90;99.90;;;;;;5052899;28;20095;-70
2022/11/13 03:10:08;;;;;;;55.10;29.38;;;5.00;99.90;;;;;;5053972;28;20099;-70
2022/11/13 03:12:33;;;;;;;50.30;29.15;;;5.00;99.90;;;;;;5053416;28;20032;-69
2022/11/13 03:14:59;;;;;;;55.97;29.58;;;5.00;99.90;;;;;;5053528;28;20021;-70
2022/11/13 03:17:25;;;;;;;49.00;29.60;;;5.00;99.90;;;;;;5052789;28;20021;-70
2022/11/13 03:19:50;;;;;;;51.60;29.52;;;5.00;99.90;;;;;;5053339;28;20036;-70
2022/11/13 03:22:16;;;;;;;57.63;31.00;;;5.10;99.90;;;;;;5053323;28;20013;-69
2022/11/13 03:24:41;;;;;;;58.53;32.05;;;5.10;99.90;;;;;;5053003;28;20021;-70
2022/11/13 03:27:07;;;;;;;60.13;30.63;;;5.20;99.90;;;;;;5053045;28;20029;-69
2022/11/13 03:29:32;;;;;;;55.00;30.17;;;5.20;99.90;;;;;;5052810;28;20044;-69
2022/11/13 03:31:58;;;;;;;46.33;28.48;;;5.20;99.90;;;;;;5053152;28;20056;-70
2022/11/13 03:34:24;;;;;;;53.67;28.70;;;5.30;99.90;;;;;;5052889;28;20021;-69
2022/11/13 03:36:49;;;;;;;47.20;27.73;;;5.30;99.90;;;;;;5059285;28;20379;-70
2022/11/13 03:39:15;;;;;;;46.55;28.15;;;5.30;99.90;;;;;;5060986;28;20028;-69
2022/11/13 03:41:40;;;;;;;52.90;27.50;;;5.20;99.90;;;;;;5052520;28;20029;-70
2022/11/13 03:44:06;;;;;;;51.00;27.73;;;5.20;99.90;;;;;;5053288;28;20045;-70
2022/11/13 03:46:31;;;;;;;48.38;27.85;;;5.20;99.90;;;;;;5053377;28;20439;-69
2022/11/13 03:48:57;;;;;;;44.55;26.23;;;5.20;99.90;;;;;;5053315;28;20071;-70
2022/11/13 03:51:22;;;;;;;39.60;24.75;;;5.20;99.90;;;;;;5053688;28;20078;-69
2022/11/13 03:53:48;;;;;;;42.25;24.20;;;5.20;99.90;;;;;;5053383;28;20033;-69
2022/11/13 03:56:13;;;;;;;47.00;26.00;;;5.10;99.90;;;;;;5052140;28;20025;-69
2022/11/13 03:58:39;;;;;;;49.15;25.17;;;5.10;99.90;;;;;;5053098;28;20017;-70
2022/11/13 04:01:04;;;;;;;40.55;24.85;;;5.00;99.90;;;;;;5051726;28;20025;-69
2022/11/13 04:03:30;;;;;;;38.13;22.40;;;5.00;99.90;;;;;;5052876;28;20823;-69
2022/11/13 04:05:55;;;;;;;43.00;24.10;;;5.00;99.90;;;;;;5054031;28;20025;-70
2022/11/13 04:08:21;;;;;;;46.20;26.77;;;4.90;99.90;;;;;;5067900;28;20047;-70
2022/11/13 04:10:46;;;;;;;44.20;24.80;;;4.90;99.90;;;;;;5073452;28;20021;-70
2022/11/13 04:13:12;;;;;;;48.60;28.73;;;4.90;99.90;;;;;;5072901;28;20100;-70
2022/11/13 04:15:38;;;;;;;57.45;30.35;;;4.90;99.90;;;;;;5072374;28;20029;-69
2022/11/13 04:18:04;;;;;;;49.60;27.75;;;5.00;99.90;;;;;;5072769;28;20017;-69
2022/11/13 04:20:29;;;;;;;52.17;28.00;;;5.00;99.90;;;;;;5072640;28;20016;-69
2022/11/13 04:22:55;;;;;;;39.03;24.05;;;5.00;99.90;;;;;;5056813;28;20423;-70
2022/11/13 04:25:21;;;;;;;40.47;24.95;;;5.00;99.90;;;;;;5056340;28;20546;-70
2022/11/13 04:27:48;;;;;;;42.60;25.10;;;5.00;99.90;;;;;;5055802;28;20041;-70
2022/11/13 04:30:14;;;;;;;46.40;26.85;;;5.00;99.90;;;;;;5056328;28;20477;-69
2022/11/13 04:32:40;;;;;;;47.17;28.23;;;5.00;99.90;;;;;;5056295;28;20033;-70
2022/11/13 04:35:06;;;;;;;48.30;27.00;;;5.00;99.90;;;;;;5056075;28;20496;-70
2022/11/13 04:37:32;;;;;;;46.28;27.15;;;4.90;99.90;;;;;;5055596;28;20056;-69
2022/11/13 04:39:57;;;;;;;54.85;29.08;;;4.90;99.90;;;;;;5056553;28;20036;-70
2022/11/13 04:45:08;;;;;;;80.10;39.13;;;5.00;99.90;;;;;;5105119;23;20105;-69
2022/11/13 04:47:34;;;;;;;80.07;37.60;;;5.00;99.90;;;;;;5076206;28;20020;-70
2022/11/13 04:49:59;;;;;;;65.88;32.63;;;5.10;99.90;;;;;;5076298;28;20024;-70
2022/11/13 04:52:25;;;;;;;56.92;30.98;;;5.00;99.90;;;;;;5075297;28;20021;-69
2022/11/13 04:54:50;;;;;;;49.45;27.67;;;5.00;99.90;;;;;;5075786;28;20099;-69
2022/11/13 04:57:16;;;;;;;63.25;33.17;;;4.90;99.90;;;;;;5075861;28;20029;-70
2022/11/13 04:59:41;;;;;;;50.38;26.92;;;4.90;99.90;;;;;;5075425;28;20115;-69
2022/11/13 05:02:07;;;;;;;49.30;28.02;;;4.90;99.90;;;;;;5065736;28;20104;-69
2022/11/13 05:04:32;;;;;;;51.95;27.77;;;4.90;99.90;;;;;;5055597;28;20067;-69
2022/11/13 05:06:58;;;;;;;52.28;27.10;;;4.90;99.90;;;;;;5055751;28;20029;-70
2022/11/13 05:09:23;;;;;;;44.55;25.30;;;4.90;99.90;;;;;;5054362;28;20029;-70
2022/11/13 05:11:49;;;;;;;39.88;25.05;;;4.90;99.90;;;;;;5055904;28;20064;-70
2022/11/13 05:14:14;;;;;;;42.17;24.38;;;4.90;99.90;;;;;;5054807;28;20056;-69
2022/11/13 05:16:40;;;;;;;42.78;24.08;;;4.90;99.90;;;;;;5055381;28;20056;-69
2022/11/13 05:19:05;;;;;;;42.05;24.17;;;4.80;99.90;;;;;;5055420;28;20064;-70
2022/11/13 05:21:35;;;;;;;48.97;26.73;;;4.80;99.90;;;;;;5055581;28;20060;-69
2022/11/13 05:24:01;;;;;;;43.20;25.58;;;4.80;99.90;;;;;;5055390;28;20055;-69
2022/11/13 05:26:27;;;;;;;48.72;28.25;;;4.80;99.90;;;;;;5055587;28;20079;-69
2022/11/13 05:28:56;;;;;;;44.92;25.55;;;4.80;99.90;;;;;;5055127;28;20021;-69
2022/11/13 05:31:22;;;;;;;43.85;25.52;;;4.70;99.90;;;;;;5054328;28;20112;-69
2022/11/13 05:33:48;;;;;;;41.97;26.23;;;4.70;99.90;;;;;;5055053;28;20064;-69
2022/11/13 05:36:15;;;;;;;50.47;27.58;;;4.60;99.90;;;;;;5055194;28;20434;-69
2022/11/13 05:38:41;;;;;;;52.78;29.98;;;4.60;99.90;;;;;;5055020;28;20025;-69
2022/11/13 05:41:18;;;;;;;51.55;28.17;;;4.50;99.90;;;;;;5054577;28;20037;-69
2022/11/13 05:43:44;;;;;;;53.70;29.25;;;4.50;99.90;;;;;;5055114;28;20481;-69
2022/11/13 05:46:14;;;;;;;47.53;27.63;;;4.40;99.90;;;;;;5054797;28;20041;-69
2022/11/13 05:48:40;;;;;;;44.65;26.77;;;4.30;99.90;;;;;;5055009;28;20029;-69
2022/11/13 05:51:15;;;;;;;49.80;26.27;;;4.20;99.90;;;;;;5054374;28;20047;-69
2022/11/13 05:53:41;;;;;;;47.83;26.02;;;4.20;99.90;;;;;;5054929;28;20021;-69
2022/11/13 05:56:13;;;;;;;44.03;26.20;;;4.10;99.90;;;;;;5054863;28;20025;-69
2022/11/13 05:58:40;;;;;;;39.63;23.27;;;4.00;99.90;;;;;;5054091;28;20021;-69
2022/11/13 06:01:11;;;;;;;37.63;23.55;;;4.00;99.90;;;;;;5054937;28;20029;-70
2022/11/13 06:03:37;;;;;;;46.00;23.77;;;3.90;99.90;;;;;;5054787;28;20029;-69
2022/11/13 06:06:04;;;;;;;46.67;24.80;;;3.80;99.90;;;;;;5054374;28;20025;-69
2022/11/13 06:08:30;;;;;;;49.28;25.15;;;3.80;99.90;;;;;;5054605;28;20033;-69
2022/11/13 06:11:04;;;;;;;39.72;23.17;;;3.80;99.90;;;;;;5053729;28;20427;-69
2022/11/13 06:13:30;;;;;;;41.72;24.02;;;3.80;99.90;;;;;;5055008;28;20027;-69
2022/11/13 06:16:06;;;;;;;47.60;25.13;;;3.70;99.90;;;;;;5056317;28;20028;-69
2022/11/13 06:18:32;;;;;;;37.13;22.95;;;3.60;99.90;;;;;;5055506;28;20045;-69
2022/11/13 06:21:09;;;;;;;38.45;23.10;;;3.60;99.90;;;;;;5055458;28;20496;-69
2022/11/13 06:23:36;;;;;;;38.53;22.63;;;3.50;99.90;;;;;;5053750;28;20025;-69
2022/11/13 06:26:10;;;;;;;34.92;21.45;;;3.50;99.90;;;;;;5054054;28;20024;-69
2022/11/13 06:28:36;;;;;;;34.60;21.50;;;3.50;99.90;;;;;;5052863;28;20507;-70
2022/11/13 06:31:07;;;;;;;33.20;19.58;;;3.40;99.90;;;;;;5053799;28;20032;-69
2022/11/13 06:33:33;;;;;;;30.33;18.10;;;3.30;99.90;;;;;;5054283;28;20061;-69
2022/11/13 06:36:03;;;;;;;36.03;20.38;;;3.30;99.90;;;;;;5054096;28;20059;-69
2022/11/13 06:38:31;;;;;;;63.83;34.17;;;3.30;99.90;;;;;;5053903;28;20025;-69
2022/11/13 06:40:57;;;;;;;81.28;41.50;;;3.30;99.90;;;;;;5053357;28;20523;-71
2022/11/13 06:43:22;;;;;;;64.30;34.08;;;3.30;99.90;;;;;;5052465;28;20025;-70
2022/11/13 06:45:48;;;;;;;55.80;29.42;;;3.30;99.90;;;;;;5053608;28;20033;-71
2022/11/13 06:48:13;;;;;;;48.75;26.88;;;3.20;99.90;;;;;;5054160;28;20408;-71
2022/11/13 06:50:39;;;;;;;45.33;25.13;;;3.20;99.90;;;;;;5053118;28;20112;-70
2022/11/13 06:53:04;;;;;;;45.92;25.23;;;3.20;99.90;;;;;;5053854;28;20031;-70
2022/11/13 06:55:30;;;;;;;45.17;24.55;;;3.20;99.90;;;;;;5053109;28;20020;-70
2022/11/13 06:57:55;;;;;;;46.83;25.98;;;3.20;99.90;;;;;;5053646;28;20369;-70
2022/11/13 07:00:21;;;;;;;49.70;25.95;;;3.20;99.90;;;;;;5053605;28;20437;-71
2022/11/13 07:02:50;;;;;;;45.15;24.00;;;3.20;99.90;;;;;;5053005;28;20052;-71
2022/11/13 07:05:16;;;;;;;39.67;23.08;;;3.10;99.90;;;;;;5053771;28;20036;-71
2022/11/13 07:07:41;;;;;;;44.47;24.80;;;3.10;99.90;;;;;;5053446;28;20393;-71
2022/11/13 07:10:07;;;;;;;34.17;21.67;;;3.20;99.90;;;;;;5053482;28;20052;-71
2022/11/13 07:12:33;;;;;;;35.78;21.85;;;3.20;99.90;;;;;;5054843;28;20056;-71
2022/11/13 07:14:58;;;;;;;31.05;20.20;;;3.20;99.90;;;;;;5073645;28;20053;-71
2022/11/13 07:17:24;;;;;;;31.65;20.77;;;3.20;99.90;;;;;;5074025;28;20491;-70
2022/11/13 07:19:49;;;;;;;32.65;19.67;;;3.20;99.90;;;;;;5056378;28;20025;-70
2022/11/13 07:22:15;;;;;;;40.20;21.83;;;3.20;99.90;;;;;;5053725;28;20471;-70
2022/11/13 07:24:41;;;;;;;43.50;22.63;;;3.20;99.90;;;;;;5053273;28;20033;-71
2022/11/13 07:27:07;;;;;;;42.85;23.75;;;3.20;99.90;;;;;;5053553;28;20469;-71
2022/11/13 07:29:35;;;;;;;51.67;28.05;;;3.20;99.90;;;;;;5052481;28;20027;-70
2022/11/13 07:32:00;;;;;;;60.03;30.17;;;3.30;99.90;;;;;;5053608;28;20387;-70
2022/11/13 07:34:26;;;;;;;56.25;29.90;;;3.50;99.90;;;;;;5053279;28;20108;-70
2022/11/13 07:36:51;;;;;;;56.30;30.25;;;3.60;99.90;;;;;;5053044;28;20028;-71
2022/11/13 07:39:17;;;;;;;48.83;28.63;;;3.70;99.90;;;;;;5053558;28;20108;-71
2022/11/13 07:41:42;;;;;;;54.63;30.42;;;3.80;99.90;;;;;;5051332;28;20389;-72
2022/11/13 07:44:08;;;;;;;60.35;32.33;;;3.80;99.90;;;;;;5052996;28;20374;-71
2022/11/13 07:46:33;;;;;;;48.50;27.85;;;3.90;99.90;;;;;;5053058;28;20033;-72
2022/11/13 07:48:59;;;;;;;51.33;26.55;;;3.90;99.90;;;;;;5053089;28;20025;-72
2022/11/13 07:51:24;;;;;;;49.88;26.42;;;4.00;99.90;;;;;;5052969;28;20021;-71
2022/11/13 07:53:50;;;;;;;50.40;27.15;;;3.90;99.90;;;;;;5053038;28;20446;-71
2022/11/13 07:56:15;;;;;;;44.75;26.73;;;4.00;99.90;;;;;;5056816;28;20024;-71
2022/11/13 07:58:41;;;;;;;52.28;26.33;;;4.00;99.90;;;;;;5056714;28;20020;-71
2022/11/13 08:01:06;;;;;;;51.28;26.35;;;4.10;99.90;;;;;;5056770;28;20025;-71
2022/11/13 08:03:32;;;;;;;55.42;31.02;;;4.20;99.90;;;;;;5056819;28;20019;-71
2022/11/13 08:06:04;;;;;;;49.40;28.90;;;4.30;99.90;;;;;;5054907;28;20025;-72
2022/11/13 08:08:29;;;;;;;52.28;29.00;;;4.40;99.90;;;;;;5056804;28;20029;-72
2022/11/13 08:10:55;;;;;;;60.80;30.67;;;4.50;99.90;;;;;;5056947;28;20025;-71
2022/11/13 08:13:21;;;;;;;60.70;32.55;;;4.60;99.90;;;;;;5055178;28;20399;-72
2022/11/13 08:15:46;;;;;;;55.25;32.65;;;4.70;99.90;;;;;;5055980;28;20032;-72
2022/11/13 08:18:12;;;;;;;67.78;32.50;;;4.90;99.90;;;;;;5057045;28;20362;-72
2022/11/13 08:20:37;;;;;;;66.03;33.78;;;5.00;99.90;;;;;;5056909;28;20025;-72
2022/11/13 08:23:03;;;;;;;61.38;34.42;;;5.20;99.90;;;;;;5056655;28;20021;-71
2022/11/13 08:25:30;;;;;;;86.07;40.35;;;5.30;99.90;;;;;;5054969;28;20028;-69
2022/11/13 08:27:56;;;;;;;74.32;39.63;;;5.50;99.90;;;;;;5055926;28;20151;-70
2022/11/13 08:30:23;;;;;;;82.22;41.38;;;5.80;99.90;;;;;;5056102;28;20064;-70
2022/11/13 08:32:49;;;;;;;100.00;44.80;;;6.00;99.90;;;;;;5055453;28;20036;-70
2022/11/13 08:35:15;;;;;;;86.70;43.42;;;6.20;99.90;;;;;;5056015;28;20473;-69
2022/11/13 08:37:40;;;;;;;101.40;45.22;;;6.40;99.90;;;;;;5056046;28;20078;-70
2022/11/13 08:40:06;;;;;;;109.40;48.38;;;6.70;99.90;;;;;;5056203;28;20021;-70
2022/11/13 08:42:32;;;;;;;102.00;49.72;;;6.90;99.90;;;;;;5055435;28;20021;-70
2022/11/13 08:44:57;;;;;;;106.32;48.70;;;7.00;99.90;;;;;;5055634;28;20447;-69
2022/11/13 08:47:23;;;;;;;106.78;46.55;;;7.10;99.90;;;;;;5055714;28;20036;-69
2022/11/13 08:49:48;;;;;;;94.05;47.72;;;7.30;99.90;;;;;;5055726;28;20037;-70
2022/11/13 08:52:14;;;;;;;108.90;49.67;;;7.50;99.90;;;;;;5055610;28;20094;-70
2022/11/13 08:54:40;;;;;;;115.43;49.60;;;7.70;99.90;;;;;;5054942;28;20104;-69
2022/11/13 08:57:06;;;;;;;121.95;52.67;;;7.80;99.90;;;;;;5055541;28;20025;-70
2022/11/13 08:59:31;;;;;;;112.15;49.35;;;7.90;99.90;;;;;;5055573;28;20159;-70
2022/11/13 09:01:58;;;;;;;112.10;47.28;;;8.10;99.90;;;;;;5054289;28;20025;-70
2022/11/13 09:04:26;;;;;;;103.30;48.17;;;8.20;99.90;;;;;;5055795;28;20083;-70
2022/11/13 09:06:52;;;;;;;107.55;49.83;;;8.30;99.90;;;;;;5054038;28;20431;-71
2022/11/13 09:09:19;;;;;;;84.93;44.35;;;8.40;99.90;;;;;;5055756;28;20028;-70
2022/11/13 09:11:45;;;;;;;88.03;40.97;;;8.40;99.90;;;;;;5055688;28;20079;-70
2022/11/13 09:14:10;;;;;;;92.13;45.78;;;8.50;99.90;;;;;;5055237;28;20037;-70
2022/11/13 09:16:36;;;;;;;100.80;44.03;;;8.40;99.90;;;;;;5055310;28;20387;-70
2022/11/13 09:19:02;;;;;;;93.60;42.35;;;8.40;99.90;;;;;;5054718;28;20031;-70
2022/11/13 09:21:28;;;;;;;94.40;46.00;;;8.40;99.90;;;;;;5055142;28;20476;-70
2022/11/13 09:23:54;;;;;;;84.97;44.20;;;8.40;99.90;;;;;;5054921;28;20107;-70
2022/11/13 09:26:19;;;;;;;89.80;44.40;;;8.50;99.90;;;;;;5055485;28;20033;-70
2022/11/13 09:28:45;;;;;;;94.05;45.28;;;8.60;99.90;;;;;;5054911;28;20031;-70
2022/11/13 09:31:10;;;;;;;93.93;44.35;;;8.60;99.90;;;;;;5054589;28;20029;-70
2022/11/13 09:33:36;;;;;;;82.50;42.05;;;8.70;99.90;;;;;;5054969;28;20052;-71
2022/11/13 09:36:02;;;;;;;109.65;44.53;;;8.70;99.90;;;;;;5053533;28;20021;-70
2022/11/13 09:38:30;;;;;;;86.28;41.92;;;8.80;99.90;;;;;;5054363;28;20029;-70
2022/11/13 09:41:24;;;;;;;93.63;42.80;;;9.00;99.90;;;;;;5055094;28;20057;-71
2022/11/13 09:43:53;;;;;;;87.40;44.17;;;9.20;99.90;;;;;;5052754;28;20033;-70
2022/11/13 09:46:40;;;;;;;98.28;44.05;;;9.30;99.90;;;;;;5055009;28;20037;-70
2022/11/13 09:49:20;;;;;;;81.85;44.33;;;9.40;99.90;;;;;;5054620;28;20021;-70
2022/11/13 09:52:01;;;;;;;93.30;42.85;;;9.50;99.90;;;;;;5055090;28;20055;-71
2022/11/13 09:54:26;;;;;;;76.35;42.10;;;9.70;99.90;;;;;;5054125;28;20032;-70
2022/11/13 09:57:11;;;;;;;87.05;43.35;;;9.80;99.90;;;;;;5069179;28;20384;-70
2022/11/13 09:59:56;;;;;;;70.18;37.15;;;9.90;99.90;;;;;;5074970;28;20443;-70
2022/11/13 10:03:00;;;;;;;74.05;38.75;;;9.90;99.90;;;;;;5074246;28;20357;-70
2022/11/13 10:05:44;;;;;;;66.20;36.92;;;10.00;99.90;;;;;;5069765;28;20021;-70
2022/11/13 10:08:16;;;;;;;74.35;35.75;;;9.90;99.90;;;;;;5054734;28;20496;-71
2022/11/13 10:11:22;;;;;;;65.70;35.65;;;10.10;99.90;;;;;;5055446;28;20037;-71
2022/11/13 10:14:00;;;;;;;58.65;34.95;;;10.20;99.90;;;;;;5054504;28;20025;-70
2022/11/13 10:16:33;;;;;;;65.80;35.40;;;10.30;99.90;;;;;;5054476;28;20021;-71
2022/11/13 10:19:22;;;;;;;49.78;32.63;;;10.40;99.90;;;;;;5054196;28;20484;-71
2022/11/13 10:21:55;;;;;;;68.13;32.47;;;10.20;99.90;;;;;;5054354;28;20428;-71
2022/11/13 10:24:27;;;;;;;58.08;32.05;;;10.20;99.90;;;;;;5054037;28;20025;-71
2022/11/13 10:26:56;;;;;;;65.22;32.38;;;10.30;99.90;;;;;;5053764;28;20163;-71
2022/11/13 10:29:23;;;;;;;51.63;29.50;;;10.30;99.90;;;;;;5054127;28;20074;-72
2022/11/13 10:31:50;;;;;;;53.28;30.38;;;10.30;99.90;;;;;;5054884;28;20092;-71
2022/11/13 10:34:17;;;;;;;56.67;29.73;;;10.30;99.90;;;;;;5053919;28;20385;-71
2022/11/13 10:37:05;;;;;;;56.78;30.88;;;10.30;99.90;;;;;;5054118;28;20077;-71
2022/11/13 10:39:43;;;;;;;49.97;29.17;;;10.60;99.90;;;;;;5053311;28;20053;-71
2022/11/13 10:42:21;;;;;;;50.78;27.58;;;10.60;99.90;;;;;;5054013;28;20100;-71
2022/11/13 10:44:58;;;;;;;45.08;27.27;;;10.80;99.90;;;;;;5078068;23;20488;-75
2022/11/13 10:47:26;;;;;;;40.95;25.13;;;10.90;99.90;;;;;;5074263;28;20025;-75
2022/11/13 10:49:53;;;;;;;40.00;24.05;;;10.90;99.90;;;;;;5072951;28;20062;-75
2022/11/13 10:52:25;;;;;;;41.42;24.48;;;10.80;99.90;;;;;;5074142;28;20017;-75
2022/11/13 10:55:24;;;;;;;37.50;22.35;;;10.70;99.90;;;;;;5074206;28;20499;-74
2022/11/13 10:57:59;;;;;;;36.55;22.33;;;10.80;99.90;;;;;;5059345;28;20147;-74
2022/11/13 11:00:37;;;;;;;34.88;21.90;;;10.70;99.90;;;;;;5074028;28;20396;-74
2022/11/13 11:03:06;;;;;;;30.83;21.52;;;10.70;99.90;;;;;;5074309;28;20076;-75
2022/11/13 11:05:32;;;;;;;34.30;21.25;;;10.60;99.90;;;;;;5072838;28;20035;-74
2022/11/13 11:07:58;;;;;;;40.60;20.98;;;10.60;99.90;;;;;;5054222;28;20108;-74
2022/11/13 11:10:31;;;;;;;38.65;21.52;;;10.80;99.90;;;;;;5054782;28;20021;-74
2022/11/13 11:13:10;;;;;;;;;;;10.90;99.90;;;;;;5054497;28;20043;-75
2022/11/13 11:15:46;;;;;;;36.63;21.65;;;11.10;99.90;;;;;;5053726;28;19978;-74
2022/11/13 11:18:34;;;;;;;36.45;19.48;;;11.20;99.90;;;;;;5051963;28;20559;-74
2022/11/13 11:21:07;;;;;;;27.77;20.23;;;11.40;99.90;;;;;;5052707;28;20511;-75
2022/11/13 11:23:44;;;;;;;31.23;18.88;;;11.50;99.90;;;;;;5054242;28;20480;-75
2022/11/13 11:26:23;;;;;;;35.92;19.73;;;11.70;99.90;;;;;;5053346;28;20152;-75
2022/11/13 11:29:07;;;;;;;28.35;19.88;;;11.90;99.90;;;;;;5055189;28;20024;-75
2022/11/13 11:31:36;;;;;;;;;;;12.00;99.90;;;;;;5058241;28;20025;-74
2022/11/13 11:34:19;;;;;;;31.35;16.45;;;12.20;99.90;;;;;;5058254;28;19999;-75
2022/11/13 11:36:47;;;;;;;30.57;17.77;;;12.20;99.90;;;;;;5058165;28;20017;-73
2022/11/13 11:39:36;;;;;;;29.63;16.65;;;12.30;99.90;;;;;;5057867;28;20256;-75
2022/11/13 11:42:26;;;;;;;27.05;16.50;;;12.40;99.90;;;;;;5057727;28;20021;-75
2022/11/13 11:45:24;;;;;;;26.80;16.35;;;12.40;99.90;;;;;;5057737;28;20035;-75
2022/11/13 11:47:50;;;;;;;27.40;15.85;;;12.20;99.90;;;;;;5056367;28;20037;-75
2022/11/13 11:50:25;;;;;;;33.85;16.10;;;12.10;99.90;;;;;;5056940;28;20500;-75
2022/11/13 11:53:03;;;;;;;27.63;14.88;;;12.20;99.90;;;;;;5057978;28;20085;-75
2022/11/13 11:55:56;;;;;;;27.13;17.05;;;12.20;99.90;;;;;;5057660;28;20539;-75
2022/11/13 11:58:35;;;;;;;30.50;15.52;;;12.40;99.90;;;;;;5056151;28;20031;-75
2022/11/13 12:01:20;;;;;;;22.00;14.43;;;12.50;99.90;;;;;;5056850;28;20021;-75
2022/11/13 12:04:10;;;;;;;23.83;14.70;;;12.50;99.90;;;;;;5063640;28;20127;-75
2022/11/13 12:06:35;;;;;;;23.77;15.23;;;12.50;99.90;;;;;;5073151;28;20020;-75
2022/11/13 12:09:23;;;;;;;20.92;13.07;;;12.50;99.90;;;;;;5058879;28;20012;-74
2022/11/13 12:12:20;;;;;;;20.48;12.68;;;12.50;99.90;;;;;;5064796;28;20029;-75
2022/11/13 12:15:14;;;;;;;20.55;12.55;;;12.50;99.90;;;;;;5056483;28;20021;-74
2022/11/13 12:17:49;;;;;;;22.98;14.82;;;12.40;99.90;;;;;;5055890;28;20031;-77
2022/11/13 12:20:52;;;;;;;24.08;13.52;;;12.30;99.90;;;;;;5055859;28;20049;-77
2022/11/13 12:23:36;;;;;;;21.55;13.43;;;12.20;99.90;;;;;;5056399;28;20028;-77
2022/11/13 12:26:08;;;;;;;;;;;12.10;99.90;;;;;;5057127;28;20032;-76
2022/11/13 12:29:03;;;;;;;26.33;14.35;;;12.00;99.90;;;;;;5056895;28;19911;-76
2022/11/13 12:31:58;;;;;;;24.42;15.65;;;11.80;99.90;;;;;;5056540;28;20029;-76
2022/11/13 12:34:27;;;;;;;31.65;15.80;;;11.70;99.90;;;;;;5056769;28;20035;-77
2022/11/13 12:36:53;;;;;;;29.50;15.60;;;11.70;99.90;;;;;;5056578;28;20021;-77
2022/11/13 12:39:54;;;;;;;31.05;17.52;;;11.70;99.90;;;;;;5056079;28;20064;-75
2022/11/13 12:42:33;;;;;;;34.40;18.20;;;11.70;99.90;;;;;;5048163;28;20055;-77
2022/11/13 12:45:45;;;;;;;30.08;17.02;;;11.80;99.90;;;;;;5056516;28;20033;-76
2022/11/13 12:48:13;;;;;;;26.90;15.00;;;12.10;99.90;;;;;;5055428;28;20028;-76
2022/11/13 12:50:39;;;;;;;30.98;16.88;;;12.50;99.90;;;;;;5056388;28;20100;-76